Time;durP1;ratioP1;P1;durP2;ratioP2;P2;SDS_P1;SDS_P2;PMS_P1;PMS_P2;Temp;Humidity;BMP_temperature;BMP_pressure;BME280_temperature;BME280_humidity;BME280_pressure;Samples;Min_cycle;Max_cycle;Signal;HPM_P1;HPM_P2
2023/07/22 00:00:15;;;;;;;8.87;5.13;;;;;;;28.36;72.42;100809.06;5054897;28;70624;-44
2023/07/22 00:02:48;;;;;;;6.03;4.70;;;;;;;28.41;72.63;100828.13;5060534;28;65944;-45
2023/07/22 00:05:23;;;;;;;7.20;4.15;;;;;;;28.44;72.19;100826.94;5058429;28;70408;-46
2023/07/22 00:07:54;;;;;;;8.48;4.53;;;;;;;28.44;72.25;100821.53;5060445;28;65603;-44
2023/07/22 00:10:26;;;;;;;6.80;4.80;;;;;;;28.33;73.04;100820.22;5056997;28;69167;-45
2023/07/22 00:12:57;;;;;;;5.30;4.70;;;;;;;28.45;72.88;100834.84;5060932;28;66344;-45
2023/07/22 00:15:29;;;;;;;4.90;4.50;;;;;;;28.48;72.65;100833.59;5056378;28;69787;-45
2023/07/22 00:18:01;;;;;;;5.70;5.20;;;;;;;28.52;72.88;100841.06;5056813;28;66203;-43
2023/07/22 00:20:33;;;;;;;13.90;5.38;;;;;;;28.53;74.67;100836.50;5053546;28;69393;-46
2023/07/22 00:23:04;;;;;;;16.65;8.45;;;;;;;28.48;74.82;100810.13;5061046;28;66008;-42
2023/07/22 00:25:36;;;;;;;21.17;12.43;;;;;;;28.60;78.32;100841.91;5058541;28;69409;-43
2023/07/22 00:28:07;;;;;;;25.25;14.52;;;;;;;28.63;77.64;100847.72;5058446;28;65302;-44
2023/07/22 00:30:39;;;;;;;21.25;14.32;;;;;;;28.51;77.87;100817.81;5059274;28;69154;-45
2023/07/22 00:33:10;;;;;;;24.83;13.00;;;;;;;28.67;79.36;100848.16;5058333;28;66153;-46
2023/07/22 00:35:42;;;;;;;30.42;12.65;;;;;;;28.64;78.38;100827.81;5070523;28;70085;-47
2023/07/22 00:38:14;;;;;;;36.17;13.57;;;;;;;28.80;79.62;100844.63;5058487;28;66041;-45
2023/07/22 00:40:45;;;;;;;23.05;15.70;;;;;;;28.74;79.58;100844.41;5057988;28;69878;-44
2023/07/22 00:43:18;;;;;;;25.00;16.08;;;;;;;28.78;79.92;100850.25;5039502;28;66059;-44
2023/07/22 00:45:49;;;;;;;26.88;14.85;;;;;;;28.87;78.11;100859.78;5058729;28;70185;-45
2023/07/22 00:48:21;;;;;;;;;;;;;;;28.61;81.57;100859.75;5057484;28;65420;-44
2023/07/22 00:50:53;;;;;;;24.25;15.20;;;;;;;28.77;79.79;100847.72;5052441;28;70932;-42
2023/07/22 00:53:24;;;;;;;;;;;;;;;28.63;81.84;100866.59;5058023;28;66052;-44
2023/07/22 00:55:55;;;;;;;20.73;15.32;;;;;;;28.85;78.29;100845.66;5055528;28;69898;-43
2023/07/22 00:58:27;;;;;;;29.60;16.23;;;;;;;28.79;78.83;100835.69;5048213;28;66294;-43
2023/07/22 01:00:58;;;;;;;33.22;16.10;;;;;;;28.90;80.86;100864.78;5055009;28;70314;-44
2023/07/22 01:03:31;;;;;;;24.75;15.35;;;;;;;29.02;78.95;100877.66;5058703;28;66224;-45
2023/07/22 01:06:04;;;;;;;21.08;14.07;;;;;;;29.00;80.12;100874.31;5054238;28;69200;-44
2023/07/22 01:08:36;;;;;;;18.20;14.20;;;;;;;29.05;79.75;100882.66;5055199;28;65472;-46
2023/07/22 01:11:07;;;;;;;14.30;12.52;;;;;;;29.06;78.49;100876.22;5049437;28;69244;-44
2023/07/22 01:13:39;;;;;;;14.13;12.73;;;;;;;29.10;79.19;100880.19;5060471;28;65680;-44
2023/07/22 01:16:10;;;;;;;15.88;12.38;;;;;;;29.10;79.21;100886.41;5054028;28;72637;-44
2023/07/22 01:18:43;;;;;;;16.58;13.00;;;;;;;28.39;78.63;100780.81;5059829;28;66729;-43
2023/07/22 01:21:15;;;;;;;;;;;;;;;28.90;80.50;100896.34;5059575;28;69917;-44
2023/07/22 01:23:47;;;;;;;;;;;;;;;28.89;80.37;100908.16;5055679;28;66270;-42
2023/07/22 01:26:19;;;;;;;19.77;13.30;;;;;;;29.16;78.82;100906.34;5051836;28;70001;-43
2023/07/22 01:28:50;;;;;;;;;;;;;;;28.93;80.51;100907.56;5049871;28;66488;-45
2023/07/22 01:31:22;;;;;;;13.38;11.55;;;;;;;29.17;79.55;100914.25;5066977;28;69307;-45
2023/07/22 01:33:53;;;;;;;19.20;12.68;;;;;;;29.20;78.23;100912.16;5057185;28;65876;-45
2023/07/22 01:36:25;;;;;;;12.93;11.52;;;;;;;29.22;79.29;100921.72;5049661;28;70251;-44
2023/07/22 01:38:57;;;;;;;16.65;10.90;;;;;;;29.15;78.89;100910.09;5056595;28;67317;-45
2023/07/22 01:41:28;;;;;;;12.90;11.23;;;;;;;29.27;79.20;100926.50;5048946;28;69411;-43
2023/07/22 01:44:00;;;;;;;15.68;10.05;;;;;;;29.24;78.88;100908.00;5056214;28;65624;-45
2023/07/22 01:46:31;;;;;;;10.88;9.98;;;;;;;29.33;77.92;100929.19;5042568;28;69900;-45
2023/07/22 01:49:12;;;;;;;9.65;8.70;;;;;;;29.28;78.84;100926.31;5056340;28;65730;-44
2023/07/22 01:51:44;;;;;;;10.52;8.98;;;;;;;29.24;78.04;100903.44;5053336;28;70928;-46
2023/07/22 01:54:15;;;;;;;9.95;8.85;;;;;;;29.36;79.05;100928.81;5058515;28;65441;-47
2023/07/22 01:56:47;;;;;;;9.38;8.60;;;;;;;29.05;78.82;100888.06;5054834;28;70200;-44
2023/07/22 01:59:18;;;;;;;10.25;8.73;;;;;;;29.37;78.94;100925.06;5052582;28;65794;-45
2023/07/22 02:01:51;;;;;;;12.93;9.13;;;;;;;29.25;78.62;100905.09;5052949;28;69608;-45
2023/07/22 02:04:23;;;;;;;19.23;8.23;;;;;;;29.21;79.58;100898.47;5071330;28;66895;-46
2023/07/22 02:06:55;;;;;;;8.95;8.18;;;;;;;29.45;78.86;100934.81;5053895;28;70305;-45
2023/07/22 02:09:27;;;;;;;8.57;7.82;;;;;;;29.45;78.96;100932.13;5055498;28;65303;-45
2023/07/22 02:11:58;;;;;;;8.85;8.05;;;;;;;29.46;78.69;100930.25;5053394;28;69511;-44
2023/07/22 02:14:29;;;;;;;8.43;7.63;;;;;;;29.39;78.73;100924.81;5055592;28;66976;-45
2023/07/22 02:17:01;;;;;;;8.20;7.53;;;;;;;29.46;78.84;100938.34;5050028;28;70126;-44
2023/07/22 02:19:32;;;;;;;7.80;7.07;;;;;;;29.48;78.62;100937.09;5051774;28;66725;-44
2023/07/22 02:22:05;;;;;;;8.63;7.82;;;;;;;29.55;77.56;100924.41;5046542;28;69810;-45
2023/07/22 02:24:36;;;;;;;7.72;6.32;;;;;;;29.71;77.00;100933.97;5054677;28;66285;-43
2023/07/22 02:27:11;;;;;;;7.15;6.57;;;;;;;29.72;76.93;100927.50;5059372;28;70047;-44
2023/07/22 02:29:42;;;;;;;10.63;6.22;;;;;;;29.75;76.67;100924.38;5059394;28;66492;-44
2023/07/22 02:32:14;;;;;;;10.05;5.80;;;;;;;29.77;76.59;100916.91;5056432;28;69991;-44
2023/07/22 02:34:45;;;;;;;6.03;5.57;;;;;;;29.66;76.05;100898.63;5054061;28;65851;-44
2023/07/22 02:37:16;;;;;;;7.18;5.97;;;;;;;29.86;76.36;100924.78;5052455;28;70016;-45
2023/07/22 02:39:48;;;;;;;6.47;5.88;;;;;;;29.88;76.04;100920.00;5052461;28;66476;-44
2023/07/22 02:42:19;;;;;;;6.15;5.55;;;;;;;29.73;76.14;100895.94;5056346;28;69032;-44
2023/07/22 02:44:51;;;;;;;6.30;5.70;;;;;;;29.91;76.17;100914.16;5053128;28;66527;-45
2023/07/22 02:47:23;;;;;;;5.88;5.28;;;;;;;29.95;75.84;100921.66;5049020;28;70780;-45
2023/07/22 02:49:54;;;;;;;5.65;5.20;;;;;;;29.93;75.68;100915.63;5058804;28;66159;-44
2023/07/22 02:52:25;;;;;;;5.40;5.00;;;;;;;30.00;75.68;100919.09;5045842;28;69710;-45
2023/07/22 02:55:20;;;;;;;6.38;5.97;;;;;;;29.80;75.46;100899.41;5052568;28;66061;-44
2023/07/22 02:57:51;;;;;;;5.22;4.78;;;;;;;29.96;75.75;100898.13;5056173;28;69913;-44
2023/07/22 03:00:26;;;;;;;5.55;5.10;;;;;;;30.06;75.66;100918.28;5058872;28;66374;-45
2023/07/22 03:03:00;;;;;;;5.40;5.00;;;;;;;30.01;75.19;100895.63;5061185;28;69543;-44
2023/07/22 03:05:34;;;;;;;5.18;4.80;;;;;;;30.13;75.02;100918.25;5052238;28;66539;-45
2023/07/22 03:08:06;;;;;;;6.05;5.38;;;;;;;30.12;75.24;100913.88;5058968;28;69968;-44
2023/07/22 03:10:38;;;;;;;5.55;5.15;;;;;;;30.16;75.56;100912.41;5054664;28;65831;-43
2023/07/22 03:13:09;;;;;;;5.55;5.05;;;;;;;30.12;75.12;100905.78;5052202;28;69615;-44
2023/07/22 03:15:41;;;;;;;5.05;4.63;;;;;;;30.14;75.39;100908.25;5058314;28;65764;-44
2023/07/22 03:18:12;;;;;;;6.15;5.63;;;;;;;30.20;75.46;100907.38;5052677;28;69840;-45
2023/07/22 03:20:44;;;;;;;5.80;5.30;;;;;;;30.22;75.38;100911.56;5058604;28;65025;-45
2023/07/22 03:23:15;;;;;;;8.23;5.35;;;;;;;30.15;74.87;100894.50;5056077;28;69463;-45
2023/07/22 03:25:48;;;;;;;4.50;4.20;;;;;;;30.08;75.19;100874.75;5047613;28;66719;-44
2023/07/22 03:28:19;;;;;;;6.57;5.43;;;;;;;30.30;75.11;100902.38;5055677;28;69282;-44
2023/07/22 03:30:51;;;;;;;5.47;5.00;;;;;;;30.32;74.81;100902.16;5060251;28;66190;-45
2023/07/22 03:33:23;;;;;;;5.95;4.72;;;;;;;30.33;75.34;100906.53;5058252;28;70519;-44
2023/07/22 03:35:54;;;;;;;5.13;4.72;;;;;;;30.33;75.23;100898.41;5056183;28;66183;-45
2023/07/22 03:38:25;;;;;;;5.80;5.30;;;;;;;30.31;74.80;100897.78;5057080;28;70750;-45
2023/07/22 03:40:57;;;;;;;5.50;5.00;;;;;;;30.40;74.84;100907.34;5053866;28;66328;-45
2023/07/22 03:43:28;;;;;;;5.57;5.07;;;;;;;30.42;74.83;100910.63;5058330;28;70003;-44
2023/07/22 03:46:00;;;;;;;6.53;5.07;;;;;;;30.44;74.87;100905.84;5069026;28;65559;-44
2023/07/22 03:48:31;;;;;;;5.68;5.28;;;;;;;30.46;74.69;100893.75;5054646;28;70344;-44
2023/07/22 03:51:03;;;;;;;5.03;4.65;;;;;;;30.41;74.41;100887.34;5070562;28;65746;-44
2023/07/22 03:53:48;;;;;;;5.88;4.85;;;;;;;30.24;75.65;100897.84;5051814;28;70885;-45
2023/07/22 03:56:23;;;;;;;4.72;4.40;;;;;;;30.06;76.01;100896.63;5052089;28;65819;-44
2023/07/22 03:58:55;;;;;;;6.25;5.07;;;;;;;30.07;76.21;100894.75;5054697;28;70042;-45
2023/07/22 04:01:27;;;;;;;5.07;4.57;;;;;;;30.02;77.27;100889.16;5058883;28;66555;-44
2023/07/22 04:03:58;;;;;;;4.78;4.38;;;;;;;29.98;76.58;100883.34;5057483;28;69559;-45
2023/07/22 04:06:30;;;;;;;5.05;4.55;;;;;;;30.02;77.53;100891.84;5052274;28;68611;-45
2023/07/22 04:09:02;;;;;;;4.90;4.50;;;;;;;29.97;77.61;100897.91;5053116;28;70655;-47
2023/07/22 04:11:34;;;;;;;5.75;4.60;;;;;;;29.91;77.38;100892.53;5051390;28;66354;-44
2023/07/22 04:14:05;;;;;;;4.82;4.15;;;;;;;29.53;77.40;100825.63;5053917;28;69821;-47
2023/07/22 04:16:36;;;;;;;6.90;4.38;;;;;;;29.97;78.08;100888.97;5053926;28;65579;-45
2023/07/22 04:19:08;;;;;;;9.75;3.88;;;;;;;29.98;77.42;100890.66;5053483;28;69980;-46
2023/07/22 04:21:39;;;;;;;13.45;4.28;;;;;;;30.00;77.82;100885.81;5052672;28;66188;-44
2023/07/22 04:24:11;;;;;;;9.63;4.35;;;;;;;29.93;77.42;100874.22;5055295;28;69409;-45
2023/07/22 04:26:44;;;;;;;4.78;3.67;;;;;;;29.47;77.45;100799.47;5049380;28;64785;-45
2023/07/22 04:29:16;;;;;;;6.47;3.63;;;;;;;30.02;77.72;100881.88;5052433;28;70142;-46
2023/07/22 04:31:47;;;;;;;5.13;3.67;;;;;;;29.99;77.44;100876.88;5054719;28;66235;-45
2023/07/22 04:34:19;;;;;;;3.63;3.30;;;;;;;30.05;77.60;100891.44;5047453;28;69671;-45
2023/07/22 04:36:50;;;;;;;6.95;3.70;;;;;;;29.98;75.14;100887.94;5056164;28;65853;-45
2023/07/22 04:39:23;;;;;;;3.67;2.90;;;;;;;29.80;72.78;100886.72;5055743;28;69584;-44
2023/07/22 04:41:54;;;;;;;3.80;3.50;;;;;;;29.97;73.51;100870.03;5054403;28;66621;-46
2023/07/22 04:44:26;;;;;;;3.65;3.35;;;;;;;29.79;72.23;100860.75;5055700;28;69972;-47
2023/07/22 04:46:58;;;;;;;3.25;2.90;;;;;;;29.94;70.58;100886.69;5049393;28;66270;-45
2023/07/22 04:49:29;;;;;;;3.83;2.95;;;;;;;29.86;69.58;100873.41;5057644;28;69052;-46
2023/07/22 04:52:01;;;;;;;3.80;3.35;;;;;;;29.80;68.04;100870.50;5054592;28;66086;-46
2023/07/22 04:54:33;;;;;;;3.20;2.90;;;;;;;29.66;67.28;100866.19;5056434;28;70200;-46
2023/07/22 04:57:04;;;;;;;4.78;2.80;;;;;;;29.64;65.68;100870.97;5056511;28;65300;-46
2023/07/22 04:59:37;;;;;;;5.40;3.00;;;;;;;29.58;65.28;100883.44;5056821;28;70283;-46
2023/07/22 05:02:08;;;;;;;4.88;3.05;;;;;;;29.54;64.45;100881.38;5053803;28;66624;-46
2023/07/22 05:04:40;;;;;;;5.10;2.83;;;;;;;29.44;64.02;100865.56;5056537;28;69876;-46
2023/07/22 05:07:11;;;;;;;3.10;2.80;;;;;;;29.36;63.92;100863.94;5055547;28;65856;-45
2023/07/22 05:09:43;;;;;;;3.20;2.90;;;;;;;29.36;63.63;100866.66;5050632;28;69500;-45
2023/07/22 05:12:15;;;;;;;7.20;4.32;;;;;;;29.43;64.54;100868.50;5051583;28;66482;-43
2023/07/22 05:14:46;;;;;;;8.23;4.70;;;;;;;29.47;65.10;100867.03;5053452;28;69224;-45
2023/07/22 05:17:18;;;;;;;15.80;4.88;;;;;;;29.46;64.22;100871.63;5058259;28;66340;-47
2023/07/22 05:19:49;;;;;;;18.77;4.82;;;;;;;29.44;63.58;100865.56;5057191;28;69884;-43
2023/07/22 05:22:21;;;;;;;30.73;4.65;;;;;;;29.31;63.74;100844.84;5051160;28;65201;-45
2023/07/22 05:24:53;;;;;;;16.55;4.82;;;;;;;29.38;63.12;100840.22;5043646;28;70766;-44
2023/07/22 05:27:25;;;;;;;5.90;4.55;;;;;;;29.38;62.41;100845.63;5053873;28;66454;-45
2023/07/22 05:29:56;;;;;;;;;;;;;;;29.02;59.64;100842.53;5051164;28;70230;-45
2023/07/22 05:32:32;;;;;;;10.68;4.13;;;;;;;29.32;60.61;100843.78;5051422;28;67111;-45
2023/07/22 05:35:05;;;;;;;9.13;3.97;;;;;;;29.19;61.28;100814.09;5053703;28;70210;-45
2023/07/22 05:37:36;;;;;;;9.65;4.05;;;;;;;29.24;61.45;100822.41;5053819;28;66606;-44
2023/07/22 05:40:08;;;;;;;10.80;3.43;;;;;;;29.22;60.97;100819.06;5054013;28;69869;-45
2023/07/22 05:42:41;;;;;;;5.75;3.72;;;;;;;29.28;60.26;100822.78;5050619;28;65480;-43
2023/07/22 05:45:15;;;;;;;7.35;3.90;;;;;;;29.30;59.84;100818.84;5051006;28;70063;-45
2023/07/22 05:47:46;;;;;;;8.02;3.30;;;;;;;29.29;59.42;100817.19;5052679;28;65884;-44
2023/07/22 05:50:18;;;;;;;4.07;3.47;;;;;;;29.29;59.22;100809.09;5053640;28;70257;-44
2023/07/22 05:52:50;;;;;;;4.72;3.00;;;;;;;29.26;59.33;100798.69;5052416;28;65770;-44
2023/07/22 05:55:22;;;;;;;12.85;3.60;;;;;;;29.23;58.90;100791.03;5050389;28;70038;-45
2023/07/22 05:57:53;;;;;;;13.15;3.25;;;;;;;29.30;58.97;100793.69;5050637;28;66020;-46
2023/07/22 06:00:24;;;;;;;8.02;2.97;;;;;;;29.31;58.40;100788.09;5054209;28;69373;-45
2023/07/22 06:02:56;;;;;;;7.60;2.90;;;;;;;29.29;58.59;100779.38;5053064;28;66136;-46
2023/07/22 06:05:28;;;;;;;4.80;2.50;;;;;;;29.29;57.80;100767.75;5047268;28;69497;-45
2023/07/22 06:07:59;;;;;;;6.82;3.13;;;;;;;29.14;57.74;100749.91;5055682;28;65484;-46
2023/07/22 06:10:32;;;;;;;9.60;2.63;;;;;;;29.28;57.22;100774.16;5058527;28;70643;-45
2023/07/22 06:13:03;;;;;;;;;;;;;;;28.93;54.13;100777.94;5049046;28;65622;-44
2023/07/22 06:15:35;;;;;;;4.57;2.60;;;;;;;29.14;57.59;100768.81;5054612;28;69307;-43
2023/07/22 06:18:08;;;;;;;3.50;2.38;;;;;;;29.20;57.25;100777.09;5055603;28;65310;-45
2023/07/22 06:20:40;;;;;;;7.22;2.65;;;;;;;29.20;56.59;100772.53;5054337;28;70486;-45
2023/07/22 06:23:12;;;;;;;10.13;2.88;;;;;;;29.18;56.61;100780.03;5058185;28;66237;-45
2023/07/22 06:25:43;;;;;;;3.50;2.20;;;;;;;29.14;56.82;100768.81;5059282;28;70964;-45
2023/07/22 06:28:15;;;;;;;3.97;2.60;;;;;;;29.06;55.72;100754.69;5055783;28;66583;-46
2023/07/22 06:30:46;;;;;;;10.63;2.80;;;;;;;29.02;56.09;100737.22;5047368;28;69471;-44
2023/07/22 06:33:18;;;;;;;8.45;2.72;;;;;;;29.09;56.32;100754.28;5063089;28;65143;-46
2023/07/22 06:35:49;;;;;;;3.28;2.30;;;;;;;29.10;55.75;100747.84;5046011;28;69119;-45
2023/07/22 06:38:23;;;;;;;3.10;2.58;;;;;;;29.16;55.54;100755.09;5053369;28;66713;-45
2023/07/22 06:40:54;;;;;;;2.63;2.00;;;;;;;29.10;55.29;100753.22;5061690;28;70098;-45
2023/07/22 06:43:26;;;;;;;2.67;1.95;;;;;;;28.92;55.00;100711.50;5055571;28;65684;-44
2023/07/22 06:45:57;;;;;;;2.25;1.98;;;;;;;29.09;54.79;100729.97;5060317;28;70135;-44
2023/07/22 06:48:29;;;;;;;3.38;2.20;;;;;;;29.11;54.63;100730.56;5060962;28;65590;-44
2023/07/22 06:51:01;;;;;;;3.55;2.30;;;;;;;29.00;54.54;100713.13;5055299;28;70168;-46
2023/07/22 06:53:32;;;;;;;2.53;2.00;;;;;;;29.13;54.26;100733.91;5050159;28;66513;-45
2023/07/22 06:56:04;;;;;;;1.90;1.80;;;;;;;29.14;53.76;100728.31;5058255;28;70449;-44
2023/07/22 06:58:35;;;;;;;3.78;1.80;;;;;;;29.15;54.11;100731.81;5059798;28;65597;-44
2023/07/22 07:01:07;;;;;;;2.55;1.77;;;;;;;29.15;53.81;100732.66;5053700;28;69960;-45
2023/07/22 07:03:38;;;;;;;2.03;1.80;;;;;;;29.16;53.43;100718.09;5057740;28;65466;-45
2023/07/22 07:06:10;;;;;;;2.00;1.80;;;;;;;29.17;53.32;100718.94;5055889;28;70546;-45
2023/07/22 07:08:42;;;;;;;1.73;1.60;;;;;;;29.20;53.70;100713.13;5056902;28;65954;-45
2023/07/22 07:11:14;;;;;;;;;;;;;;;28.91;50.70;100693.63;5054840;28;70466;-44
2023/07/22 07:13:45;;;;;;;1.88;1.77;;;;;;;29.18;53.60;100682.78;5058918;28;67294;-45
2023/07/22 07:16:31;;;;;;;2.28;1.67;;;;;;;29.20;50.63;100702.31;5058149;28;69239;-45
2023/07/22 07:19:03;;;;;;;2.55;1.90;;;;;;;28.92;53.25;100633.19;5054378;28;65718;-46
2023/07/22 07:21:38;;;;;;;2.53;1.80;;;;;;;29.27;52.56;100684.19;5058506;28;70548;-46
2023/07/22 07:24:09;;;;;;;3.22;1.85;;;;;;;29.22;52.57;100673.19;5057288;28;66223;-46
2023/07/22 07:26:41;;;;;;;1.55;1.45;;;;;;;29.28;53.11;100669.66;5054956;28;70345;-46
2023/07/22 07:29:12;;;;;;;;;;;;;;;29.10;60.02;100677.59;5060221;28;65680;-45
2023/07/22 07:31:57;;;;;;;2.08;1.90;;;;;;;29.36;63.48;100666.72;5050663;28;69543;-45
2023/07/22 07:34:28;;;;;;;14.10;2.40;;;;;;;29.60;63.34;100666.97;5054722;28;65887;-45
2023/07/22 07:37:00;;;;;;;6.55;2.45;;;;;;;29.55;66.90;100646.00;5048461;28;69876;-43
2023/07/22 07:39:32;;;;;;;2.50;1.85;;;;;;;29.81;68.09;100666.69;5054081;28;65903;-44
2023/07/22 07:42:03;;;;;;;4.38;2.55;;;;;;;29.86;68.92;100662.47;5050052;28;70175;-44
2023/07/22 07:44:35;;;;;;;3.03;2.33;;;;;;;30.03;68.77;100669.00;5053859;28;66741;-44
2023/07/22 07:47:07;;;;;;;2.55;2.35;;;;;;;30.20;67.19;100669.28;5056501;28;70087;-45
2023/07/22 07:49:39;;;;;;;20.02;2.08;;;;;;;30.03;65.79;100599.53;5050280;28;66402;-45
2023/07/22 07:52:09;;;;;;;;;;;;;;;30.33;68.39;100662.97;5052397;28;70323;-45
2023/07/22 07:54:41;;;;;;;10.90;2.40;;;;;;;30.66;65.32;100657.25;5059435;28;65390;-46
2023/07/22 07:57:12;;;;;;;9.18;2.13;;;;;;;30.77;65.39;100658.38;5056510;28;69098;-45
2023/07/22 07:59:44;;;;;;;8.65;2.10;;;;;;;30.84;65.38;100643.75;5057249;28;65861;-46
2023/07/22 08:02:16;;;;;;;10.38;2.80;;;;;;;30.94;65.48;100640.50;5057278;28;70284;-45
2023/07/22 08:04:48;;;;;;;5.38;1.75;;;;;;;30.99;65.48;100637.94;5046301;28;65685;-44
2023/07/22 08:07:20;;;;;;;2.95;2.65;;;;;;;30.90;65.61;100614.94;5059280;28;70375;-46
2023/07/22 08:09:52;;;;;;;3.55;2.63;;;;;;;31.14;65.53;100645.69;5059519;28;66506;-45
2023/07/22 08:12:25;;;;;;;3.00;2.17;;;;;;;31.06;65.97;100618.91;5058489;28;70410;-45
2023/07/22 08:14:56;;;;;;;2.10;1.90;;;;;;;31.25;66.04;100644.91;5055898;28;66159;-45
2023/07/22 08:17:28;;;;;;;4.45;2.15;;;;;;;31.30;66.26;100641.53;5046951;28;69967;-45
2023/07/22 08:20:00;;;;;;;2.83;2.30;;;;;;;31.32;66.33;100631.28;5050004;28;66836;-42
2023/07/22 08:22:31;;;;;;;2.75;2.55;;;;;;;31.03;71.69;100636.44;5059232;28;70424;-43
2023/07/22 08:25:04;;;;;;;3.88;3.30;;;;;;;30.98;72.21;100633.59;5058843;28;66496;-42
2023/07/22 08:27:36;;;;;;;4.75;3.30;;;;;;;30.82;72.71;100624.19;5053676;28;69236;-44
2023/07/22 08:30:08;;;;;;;3.97;3.40;;;;;;;30.80;73.42;100622.75;5050926;28;66973;-44
2023/07/22 08:32:39;;;;;;;5.20;3.05;;;;;;;30.91;73.90;100646.38;5055384;28;69897;-44
2023/07/22 08:35:12;;;;;;;3.88;3.15;;;;;;;30.89;74.26;100635.75;5050596;28;65484;-43
2023/07/22 08:37:43;;;;;;;5.32;3.17;;;;;;;30.89;74.70;100640.34;5042967;28;70211;-45
2023/07/22 08:40:15;;;;;;;6.05;2.92;;;;;;;30.78;74.65;100620.25;5046471;28;65758;-44
2023/07/22 08:42:50;;;;;;;6.20;3.30;;;;;;;30.91;75.14;100639.06;5055907;28;70175;-45
2023/07/22 08:45:25;;;;;;;7.47;3.13;;;;;;;30.68;75.05;100601.81;5058992;28;66045;-45
2023/07/22 08:47:59;;;;;;;4.28;2.83;;;;;;;30.48;75.34;100560.63;5057523;28;70171;-44
2023/07/22 08:50:37;;;;;;;6.22;2.78;;;;;;;30.42;75.10;100537.16;5054185;28;65946;-47
2023/07/22 08:53:09;;;;;;;6.57;2.95;;;;;;;30.96;75.12;100633.00;5055293;28;70769;-46
2023/07/22 08:55:42;;;;;;;8.27;2.78;;;;;;;30.86;74.93;100608.31;5057539;28;65795;-44
2023/07/22 08:58:14;;;;;;;4.65;2.63;;;;;;;30.99;75.08;100621.69;5056518;28;69980;-47
2023/07/22 09:00:48;;;;;;;3.33;2.72;;;;;;;30.42;74.44;100510.09;5056777;28;66379;-45
2023/07/22 09:03:20;;;;;;;6.57;3.10;;;;;;;30.97;74.54;100615.69;5050985;28;70837;-46
2023/07/22 09:05:52;;;;;;;5.20;3.03;;;;;;;31.03;74.26;100620.19;5047103;28;65592;-47
2023/07/22 09:08:24;;;;;;;4.00;2.92;;;;;;;30.98;74.40;100609.22;5042667;28;69124;-45
2023/07/22 09:10:56;;;;;;;8.73;3.42;;;;;;;31.00;74.85;100598.16;5043343;28;69073;-46
2023/07/22 09:13:29;;;;;;;5.50;2.80;;;;;;;31.05;75.28;100612.66;5049813;28;70550;-45
2023/07/22 09:16:03;;;;;;;10.90;3.47;;;;;;;31.12;74.45;100618.84;5040877;28;65701;-43
2023/07/22 09:18:34;;;;;;;9.90;3.90;;;;;;;31.21;74.58;100627.47;5045208;28;69730;-43
2023/07/22 09:21:06;;;;;;;13.65;4.28;;;;;;;31.15;74.40;100618.38;5051137;28;66053;-45
2023/07/22 09:23:38;;;;;;;4.18;3.88;;;;;;;30.63;74.11;100536.69;5055842;28;70308;-43
2023/07/22 09:26:18;;;;;;;5.32;3.45;;;;;;;30.56;73.78;100532.41;5050607;28;65947;-43
2023/07/22 09:28:55;;;;;;;4.53;3.60;;;;;;;30.64;74.22;100546.47;5046088;28;69936;-44
2023/07/22 09:31:32;;;;;;;5.18;3.00;;;;;;;31.20;74.31;100646.66;5051190;28;66857;-43
2023/07/22 09:34:12;;;;;;;5.25;3.72;;;;;;;31.20;74.31;100644.75;5056729;28;70680;-43
2023/07/22 09:36:54;;;;;;;5.65;3.67;;;;;;;31.18;74.63;100644.19;5057318;28;65645;-44
2023/07/22 09:39:25;;;;;;;;;;;;;;;31.01;75.36;100653.97;5057405;28;70040;-43
2023/07/22 09:41:58;;;;;;;6.93;3.20;;;;;;;31.05;75.21;100622.66;5051873;28;65627;-44
2023/07/22 09:44:33;;;;;;;6.97;3.50;;;;;;;31.24;75.24;100642.44;5054506;28;70220;-43
2023/07/22 09:47:09;;;;;;;5.05;3.78;;;;;;;31.14;74.75;100624.00;5052461;28;65927;-49
2023/07/22 09:49:45;;;;;;;7.15;3.55;;;;;;;30.67;74.87;100546.03;5055674;28;69963;-43
2023/07/22 09:52:16;;;;;;;4.28;3.03;;;;;;;31.36;73.57;100646.06;5056104;28;66196;-46
2023/07/22 09:54:49;;;;;;;5.30;3.40;;;;;;;31.52;72.82;100672.53;5051502;28;70112;-45
2023/07/22 09:57:22;;;;;;;8.32;2.95;;;;;;;31.02;72.46;100574.38;5052113;28;67027;-45
2023/07/22 09:59:55;;;;;;;3.50;3.20;;;;;;;31.69;71.95;100677.31;5049572;28;70109;-46
2023/07/22 10:02:27;;;;;;;3.00;2.70;;;;;;;31.75;71.45;100665.53;5051718;28;65286;-45
2023/07/22 10:04:59;;;;;;;;;;;;;;;31.47;73.29;100669.66;5051160;28;70033;-45
2023/07/22 10:07:35;;;;;;;3.75;2.85;;;;;;;31.20;71.75;100576.19;5056863;28;66060;-46
2023/07/22 10:10:08;;;;;;;3.42;2.55;;;;;;;31.80;71.51;100671.09;5054616;28;69343;-45
2023/07/22 10:12:43;;;;;;;2.78;2.58;;;;;;;31.81;71.76;100680.88;5050560;28;66466;-46
2023/07/22 10:15:19;;;;;;;2.40;2.20;;;;;;;31.82;71.59;100704.25;5052109;28;70195;-46
2023/07/22 10:17:52;;;;;;;3.63;2.53;;;;;;;31.82;71.32;100682.53;5058551;28;66388;-45
2023/07/22 10:20:24;;;;;;;3.13;2.50;;;;;;;31.68;71.30;100643.09;5053257;28;69882;-45
2023/07/22 10:22:56;;;;;;;3.67;2.28;;;;;;;31.85;70.75;100660.38;5055078;28;66644;-46
2023/07/22 10:25:29;;;;;;;2.40;2.20;;;;;;;31.85;70.75;100654.94;5058606;28;70352;-46
2023/07/22 10:28:00;;;;;;;2.85;2.55;;;;;;;31.81;70.83;100653.75;5048895;28;65599;-45
2023/07/22 10:30:32;;;;;;;3.08;2.17;;;;;;;31.83;70.84;100666.03;5057087;28;70309;-45
2023/07/22 10:33:04;;;;;;;2.92;2.65;;;;;;;31.81;70.65;100670.03;5058870;28;65525;-45
2023/07/22 10:35:42;;;;;;;3.60;2.78;;;;;;;31.35;70.79;100614.56;5052443;28;69558;-46
2023/07/22 10:38:16;;;;;;;2.58;2.20;;;;;;;31.84;70.82;100702.09;5058317;28;66303;-46
2023/07/22 10:40:48;;;;;;;2.65;2.35;;;;;;;31.84;70.62;100718.38;5055702;28;70189;-45
2023/07/22 10:43:29;;;;;;;2.38;2.17;;;;;;;31.26;70.91;100618.63;5048656;28;65189;-46
2023/07/22 10:46:09;;;;;;;3.42;2.25;;;;;;;31.31;70.98;100626.91;5050834;28;70337;-46
2023/07/22 10:48:42;;;;;;;2.47;2.28;;;;;;;31.07;71.40;100605.13;5047843;28;66266;-46
2023/07/22 10:51:15;;;;;;;4.43;2.22;;;;;;;31.37;73.27;100701.91;5057780;28;70035;-45
2023/07/22 10:53:50;;;;;;;3.35;2.50;;;;;;;31.19;73.86;100691.06;5052372;28;66030;-46
2023/07/22 10:56:24;;;;;;;3.13;2.83;;;;;;;30.81;74.45;100633.34;5053501;28;69983;-47
2023/07/22 10:58:58;;;;;;;3.15;2.85;;;;;;;30.68;75.09;100634.31;5054005;28;65444;-46
2023/07/22 11:01:29;;;;;;;4.07;2.83;;;;;;;31.12;75.71;100724.50;5059794;28;69907;-47
2023/07/22 11:04:18;;;;;;;3.22;2.92;;;;;;;31.06;75.49;100733.50;5062083;28;66346;-46
2023/07/22 11:06:49;;;;;;;4.85;2.90;;;;;;;31.08;76.04;100734.13;5058702;28;69347;-45
2023/07/22 11:09:30;;;;;;;4.78;3.33;;;;;;;31.02;76.13;100745.84;5061423;28;65715;-45
2023/07/22 11:12:01;;;;;;;6.22;3.47;;;;;;;31.02;76.56;100751.28;5056141;28;69565;-48
2023/07/22 11:14:45;;;;;;;3.90;3.33;;;;;;;30.99;76.80;100754.44;5056969;28;65679;-45
2023/07/22 11:17:18;;;;;;;4.32;3.40;;;;;;;30.98;76.54;100755.50;5054595;28;70883;-46
2023/07/22 11:19:49;;;;;;;7.38;3.53;;;;;;;30.98;77.09;100769.03;5058910;28;66240;-46
2023/07/22 11:22:21;;;;;;;3.67;3.38;;;;;;;30.95;77.15;100761.34;5060281;28;70069;-45
2023/07/22 11:24:53;;;;;;;4.07;3.78;;;;;;;30.95;76.92;100772.16;5056329;28;65810;-45
2023/07/22 11:27:25;;;;;;;4.30;3.65;;;;;;;30.88;76.86;100769.53;5057060;28;70150;-44
2023/07/22 11:30:03;;;;;;;4.22;3.70;;;;;;;30.79;77.39;100760.00;5055450;28;65935;-46
2023/07/22 11:32:34;;;;;;;6.78;4.35;;;;;;;30.89;76.96;100786.59;5058566;28;70106;-46
2023/07/22 11:35:07;;;;;;;5.13;4.72;;;;;;;30.90;77.22;100799.13;5058423;28;66600;-45
2023/07/22 11:37:38;;;;;;;5.22;4.57;;;;;;;30.79;77.54;100786.28;5054972;28;69755;-45
2023/07/22 11:40:13;;;;;;;5.60;4.25;;;;;;;30.84;77.61;100803.53;5059456;28;65904;-45
2023/07/22 11:42:47;;;;;;;6.97;4.60;;;;;;;30.84;77.99;100813.53;5056078;28;69279;-45
2023/07/22 11:45:18;;;;;;;4.95;4.55;;;;;;;30.69;78.15;100803.84;5058138;28;66535;-44
2023/07/22 11:47:50;;;;;;;5.03;4.60;;;;;;;30.69;78.07;100800.31;5060261;28;69971;-45
2023/07/22 11:50:35;;;;;;;8.38;5.63;;;;;;;30.19;78.56;100730.69;5058166;28;65278;-46